Time;durP1;ratioP1;P1;durP2;ratioP2;P2;SDS_P1;SDS_P2;PMS_P1;PMS_P2;Temp;Humidity;BMP_temperature;BMP_pressure;BME280_temperature;BME280_humidity;BME280_pressure;Samples;Min_cycle;Max_cycle;Signal;HPM_P1;HPM_P2
2023/06/26 04:26:33;;;;;;;32.40;16.10;;;;;;;19.89;100.00;100160.90;103122;1292;600350;-81
2023/06/26 04:28:59;;;;;;;31.80;15.60;;;;;;;20.47;100.00;100135.98;103109;1293;60415;-81
2023/06/26 04:31:25;;;;;;;34.30;17.00;;;;;;;20.60;100.00;100128.52;102975;1289;60535;-82
2023/06/26 04:33:50;;;;;;;29.80;15.30;;;;;;;20.73;100.00;100117.33;103323;1294;60310;-82
2023/06/26 04:36:17;;;;;;;29.50;16.30;;;;;;;20.80;100.00;100115.15;103194;1294;60402;-81
2023/06/26 04:38:43;;;;;;;34.30;15.70;;;;;;;20.94;100.00;100114.90;103290;1289;60407;-82
2023/06/26 04:41:09;;;;;;;30.80;15.80;;;;;;;21.34;100.00;100113.98;103179;1289;334305;-83
2023/06/26 04:43:34;;;;;;;37.30;16.20;;;;;;;21.74;100.00;100115.61;103716;1291;73398;-83
2023/06/26 04:49:22;;;;;;;37.20;16.30;;;;;;;22.14;100.00;100133.85;103242;1290;600091;-83
2023/06/26 04:51:48;;;;;;;32.90;17.10;;;;;;;22.19;100.00;100141.09;103682;1292;60364;-83
2023/06/26 04:54:14;;;;;;;36.90;17.60;;;;;;;22.07;100.00;100145.27;103798;1290;60848;-83
2023/06/26 04:56:43;;;;;;;30.50;17.30;;;;;;;22.09;100.00;100145.40;103867;1288;60492;-83
2023/06/26 04:59:13;;;;;;;35.10;17.50;;;;;;;22.31;100.00;100148.07;103594;1290;60289;-83
2023/06/26 05:05:01;;;;;;;32.40;16.10;;;;;;;22.78;100.00;100150.42;96564;1287;62259;-83
2023/06/26 05:07:26;;;;;;;28.60;15.50;;;;;;;22.86;100.00;100153.31;103640;1287;60344;-82
2023/06/26 05:13:17;;;;;;;30.70;16.30;;;;;;;22.79;100.00;100154.77;103470;1285;60825;-83
2023/06/26 05:15:44;;;;;;;33.10;17.00;;;;;;;22.76;100.00;100162.14;103470;1287;60490;-82
2023/06/26 05:18:09;;;;;;;33.10;17.00;;;;;;;22.76;100.00;100167.16;103691;1288;74588;-83
2023/06/26 05:20:36;;;;;;;29.30;16.70;;;;;;;22.79;100.00;100161.77;103269;1295;60364;-82
2023/06/26 05:26:24;;;;;;;28.40;15.80;;;;;;;22.97;100.00;100149.36;103111;1294;60583;-82
2023/06/26 05:28:50;;;;;;;30.60;17.40;;;;;;;23.07;100.00;100140.91;103171;1295;62550;-83
2023/06/26 05:31:16;;;;;;;28.30;16.30;;;;;;;23.14;100.00;100131.26;103096;1294;60475;-83
2023/06/26 05:33:44;;;;;;;31.40;16.60;;;;;;;23.27;100.00;100123.08;103083;1294;60454;-82
2023/06/26 05:36:13;;;;;;;28.90;17.00;;;;;;;23.38;100.00;100123.34;102828;1295;73640;-83
2023/06/26 05:38:38;;;;;;;32.70;16.60;;;;;;;23.43;100.00;100122.43;103120;1289;62791;-83
2023/06/26 05:41:04;;;;;;;36.60;17.70;;;;;;;23.44;100.00;100120.89;103033;1289;60375;-83
2023/06/26 05:43:30;;;;;;;34.00;17.40;;;;;;;23.50;100.00;100121.10;103093;1292;60476;-83
2023/06/26 05:46:13;;;;;;;36.30;17.00;;;;;;;23.56;100.00;100119.97;102921;1293;600317;-83
2023/06/26 05:48:39;;;;;;;33.90;17.90;;;;;;;23.53;100.00;100133.02;103068;1298;60399;-83
2023/06/26 05:51:05;;;;;;;36.10;17.00;;;;;;;23.60;100.00;100131.38;103050;1297;60399;-83
2023/06/26 05:53:31;;;;;;;31.50;16.80;;;;;;;23.63;100.00;100128.30;106274;1292;58061;-84
2023/06/26 05:55:57;;;;;;;29.10;16.60;;;;;;;23.57;100.00;100130.84;106226;1292;58126;-84
2023/06/26 05:58:26;;;;;;;31.00;16.80;;;;;;;23.57;100.00;100137.05;106270;1292;58602;-85
2023/06/26 06:00:51;;;;;;;29.90;16.20;;;;;;;23.63;100.00;100143.63;106248;1290;334267;-83
2023/06/26 06:03:17;;;;;;;29.40;17.50;;;;;;;23.68;100.00;100153.80;106588;1287;58089;-84
2023/06/26 06:05:42;;;;;;;31.40;17.20;;;;;;;23.70;100.00;100154.64;106562;1288;58212;-83
2023/06/26 06:08:08;;;;;;;34.10;17.70;;;;;;;23.67;100.00;100152.52;106586;1288;58239;-84
2023/06/26 06:10:33;;;;;;;37.30;18.20;;;;;;;23.71;100.00;100151.38;106513;1288;58124;-84
2023/06/26 06:12:59;;;;;;;34.80;18.50;;;;;;;23.70;100.00;100152.83;106372;1289;60415;-84
2023/06/26 06:15:24;;;;;;;32.70;18.60;;;;;;;23.80;100.00;100152.67;106600;1288;58107;-84
2023/06/26 06:17:50;;;;;;;38.00;18.40;;;;;;;23.75;100.00;100153.84;106592;1288;58374;-84
2023/06/26 06:20:16;;;;;;;33.30;18.00;;;;;;;23.72;100.00;100147.77;106540;1289;58135;-84
2023/06/26 06:22:42;;;;;;;32.80;17.90;;;;;;;23.73;100.00;100147.81;106547;1289;58037;-84
2023/06/26 06:25:07;;;;;;;36.20;18.40;;;;;;;23.80;100.00;100148.18;106772;1286;58203;-84
2023/06/26 06:27:33;;;;;;;39.60;17.90;;;;;;;23.80;100.00;100139.30;106520;1286;75349;-84
2023/06/26 06:29:58;;;;;;;34.30;17.50;;;;;;;23.88;100.00;100135.14;106694;1286;58200;-84
2023/06/26 06:32:24;;;;;;;33.70;17.70;;;;;;;23.90;100.00;100132.91;106774;1286;58516;-84
2023/06/26 06:34:49;;;;;;;32.80;17.90;;;;;;;23.94;100.00;100130.88;106774;1286;58238;-84
2023/06/26 06:37:15;;;;;;;28.80;16.60;;;;;;;24.01;100.00;100127.48;106975;1285;58253;-83
2023/06/26 06:39:40;;;;;;;36.80;17.70;;;;;;;24.03;100.00;100127.67;106867;1285;58782;-84
2023/06/26 06:42:06;;;;;;;32.70;17.70;;;;;;;24.04;100.00;100128.40;106925;1285;58101;-87
2023/06/26 06:44:32;;;;;;;41.10;20.10;;;;;;;24.07;100.00;100135.47;106902;1285;58392;-83
2023/06/26 06:46:57;;;;;;;41.80;20.70;;;;;;;24.09;100.00;100133.68;106899;1286;58164;-83
2023/06/26 06:49:23;;;;;;;46.80;22.60;;;;;;;24.10;100.00;100131.13;106571;1286;58330;-82
2023/06/26 06:51:48;;;;;;;46.20;22.40;;;;;;;24.16;100.00;100125.81;106875;1285;62526;-83
2023/06/26 06:54:16;;;;;;;50.40;24.20;;;;;;;24.30;100.00;100113.81;106525;1285;58556;-83
2023/06/26 06:56:42;;;;;;;56.70;26.00;;;;;;;24.37;100.00;100110.88;106697;1286;73696;-84
2023/06/26 06:59:08;;;;;;;54.90;26.10;;;;;;;24.47;100.00;100107.54;106896;1284;58568;-83
2023/06/26 07:01:33;;;;;;;57.30;28.00;;;;;;;24.43;100.00;100105.98;106893;1285;58186;-82
2023/06/26 07:03:59;;;;;;;54.20;27.50;;;;;;;24.39;100.00;100109.34;106862;1285;58537;-82
2023/06/26 07:06:25;;;;;;;48.00;26.80;;;;;;;24.32;100.00;100107.88;106677;1284;58159;-83
2023/06/26 07:08:51;;;;;;;48.60;25.20;;;;;;;24.35;100.00;100110.84;106942;1285;58429;-83
2023/06/26 07:11:16;;;;;;;48.70;24.10;;;;;;;24.40;100.00;100113.63;106841;1285;73334;-83
2023/06/26 07:13:42;;;;;;;37.60;21.10;;;;;;;24.35;100.00;100103.83;106879;1285;58109;-83
2023/06/26 07:16:11;;;;;;;40.90;22.10;;;;;;;24.28;100.00;100105.98;106913;1285;58215;-85
2023/06/26 07:18:37;;;;;;;42.40;22.30;;;;;;;24.28;100.00;100110.06;106701;1285;72889;-81
2023/06/26 07:21:03;;;;;;;39.30;21.70;;;;;;;24.38;100.00;100108.77;106921;1286;74290;-81
2023/06/26 07:23:28;;;;;;;43.10;21.20;;;;;;;24.34;100.00;100106.10;106839;1285;58137;-81
2023/06/26 07:25:54;;;;;;;36.60;20.00;;;;;;;24.33;100.00;100107.56;106881;1284;58182;-81
2023/06/26 07:28:19;;;;;;;35.20;20.10;;;;;;;24.42;100.00;100113.65;106903;1285;59246;-86
2023/06/26 07:30:45;;;;;;;37.70;18.80;;;;;;;24.44;100.00;100119.23;106942;1284;58150;-81
2023/06/26 07:37:11;;;;;;;31.20;19.10;;;;;;;24.23;100.00;100116.52;102724;1288;616050;-81
2023/06/26 07:39:36;;;;;;;31.90;18.50;;;;;;;24.13;100.00;100111.02;103154;1290;60371;-82
2023/06/26 07:45:41;;;;;;;34.10;18.30;;;;;;;23.92;100.00;100139.40;103154;1292;600837;-80
2023/06/26 07:48:07;;;;;;;28.50;16.30;;;;;;;23.83;100.00;100144.73;103361;1294;60367;-83
2023/06/26 07:50:32;;;;;;;34.90;18.90;;;;;;;23.78;100.00;100147.21;103257;1293;60420;-83
2023/06/26 07:52:59;;;;;;;35.00;18.80;;;;;;;23.77;100.00;100149.71;103599;1292;60294;-83
2023/06/26 07:55:26;;;;;;;29.00;18.20;;;;;;;23.75;100.00;100152.41;103425;1286;60278;-82
2023/06/26 07:57:52;;;;;;;31.00;18.70;;;;;;;23.69;100.00;100154.05;103145;1286;60460;-84
2023/06/26 08:00:17;;;;;;;29.10;18.20;;;;;;;23.65;100.00;100162.59;103474;1286;306008;-83
2023/06/26 08:02:43;;;;;;;33.40;18.50;;;;;;;23.64;100.00;100160.31;103770;1286;61280;-83
2023/06/26 08:05:09;;;;;;;35.20;18.00;;;;;;;23.62;100.00;100159.95;103822;1286;75060;-84
2023/06/26 08:07:34;;;;;;;29.60;18.00;;;;;;;23.63;100.00;100161.55;103692;1289;60408;-84
2023/06/26 08:16:14;;;;;;;27.70;17.90;;;;;;;23.78;100.00;100162.63;102984;1289;600348;-84
2023/06/26 08:18:39;;;;;;;32.60;17.60;;;;;;;23.79;100.00;100162.58;103256;1294;60355;-84
2023/06/26 08:24:28;;;;;;;28.90;17.80;;;;;;;24.06;100.00;100154.95;103790;1283;600423;-84
2023/06/26 08:30:15;;;;;;;32.60;17.00;;;;;;;24.21;100.00;100145.13;103462;1286;600332;-85
2023/06/26 08:32:40;;;;;;;26.40;17.20;;;;;;;24.29;100.00;100147.62;103633;1286;60454;-84
2023/06/26 08:35:07;;;;;;;33.10;17.50;;;;;;;24.39;100.00;100147.42;103302;1286;61009;-85
2023/06/26 08:41:04;;;;;;;35.50;17.40;;;;;;;24.46;100.00;100138.47;104073;1280;600342;-84
2023/06/26 08:43:29;;;;;;;32.00;17.00;;;;;;;24.36;100.00;100128.56;103946;1283;60403;-84
2023/06/26 08:49:22;;;;;;;28.40;17.00;;;;;;;24.52;100.00;100131.94;103214;1290;600285;-82
2023/06/26 08:52:02;;;;;;;30.00;16.40;;;;;;;24.64;100.00;100133.84;103336;1289;60738;-84
2023/06/26 08:54:40;;;;;;;27.00;16.80;;;;;;;24.78;100.00;100138.48;103328;1290;60587;-84
2023/06/26 08:57:07;;;;;;;26.70;17.00;;;;;;;24.87;100.00;100137.45;106418;1289;72538;-83
2023/06/26 08:59:33;;;;;;;26.20;15.80;;;;;;;24.97;100.00;100133.99;106300;1289;74531;-82
2023/06/26 09:01:58;;;;;;;26.60;15.40;;;;;;;25.07;100.00;100129.84;104184;1285;2887047;-83
2023/06/26 09:04:25;;;;;;;25.50;14.60;;;;;;;25.21;100.00;100124.33;106894;1285;58094;-82
2023/06/26 09:06:50;;;;;;;22.00;13.50;;;;;;;25.36;100.00;100124.73;106898;1285;57990;-82
2023/06/26 09:09:16;;;;;;;26.50;14.90;;;;;;;25.49;100.00;100121.98;106490;1286;58169;-83
2023/06/26 09:11:42;;;;;;;29.90;14.10;;;;;;;25.67;100.00;100125.79;106899;1286;58053;-83
2023/06/26 09:14:10;;;;;;;20.70;13.30;;;;;;;25.88;100.00;100127.10;106713;1288;58257;-83
2023/06/26 09:16:42;;;;;;;26.60;13.00;;;;;;;26.20;100.00;100123.86;106883;1285;61149;-84
2023/06/26 09:19:12;;;;;;;24.30;12.70;;;;;;;26.73;100.00;100123.09;106494;1285;73613;-83
2023/06/26 09:21:40;;;;;;;22.00;12.50;;;;;;;27.34;100.00;100116.31;107201;1282;74557;-84
2023/06/26 09:24:07;;;;;;;19.20;11.40;;;;;;;27.67;100.00;100109.95;106576;1283;73453;-83
2023/06/26 09:26:34;;;;;;;19.40;11.90;;;;;;;27.74;100.00;100107.14;107139;1282;63082;-83
2023/06/26 09:29:00;;;;;;;19.30;12.50;;;;;;;27.75;100.00;100109.91;107195;1282;60241;-84
2023/06/26 09:31:26;;;;;;;19.10;11.90;;;;;;;27.83;100.00;100105.95;107190;1283;58010;-83
2023/06/26 09:33:59;;;;;;;17.80;10.70;;;;;;;27.90;100.00;100105.73;107180;1283;58363;-83
2023/06/26 09:36:28;;;;;;;17.70;11.30;;;;;;;27.99;100.00;100109.73;106725;1283;72530;-85
2023/06/26 09:38:54;;;;;;;21.50;11.40;;;;;;;28.10;100.00;100109.05;107158;1282;61855;-85
2023/06/26 09:41:20;;;;;;;20.20;11.90;;;;;;;28.24;100.00;100106.48;106637;1283;58299;-85
2023/06/26 09:43:46;;;;;;;19.40;11.10;;;;;;;28.28;100.00;100106.57;107206;1282;58475;-83
2023/06/26 09:46:25;;;;;;;16.10;10.30;;;;;;;28.40;100.00;100095.60;107212;1283;58202;-84
2023/06/26 09:49:11;;;;;;;20.70;10.40;;;;;;;28.45;100.00;100090.72;107158;1282;73615;-84
2023/06/26 09:51:39;;;;;;;14.90;9.80;;;;;;;28.71;100.00;100087.89;106917;1285;62822;-85
2023/06/26 09:54:05;;;;;;;16.60;10.10;;;;;;;29.09;100.00;100086.07;107170;1283;60934;-85
2023/06/26 09:56:32;;;;;;;12.80;8.50;;;;;;;29.26;100.00;100080.73;107163;1282;58252;-84
2023/06/26 09:59:00;;;;;;;17.10;8.60;;;;;;;29.15;100.00;100078.92;107157;1282;73444;-85
2023/06/26 10:01:27;;;;;;;14.00;8.30;;;;;;;28.93;100.00;100077.09;107096;1283;72249;-85
2023/06/26 10:03:54;;;;;;;15.20;9.00;;;;;;;28.83;100.00;100075.45;107155;1282;58083;-86
2023/06/26 10:06:26;;;;;;;15.10;9.40;;;;;;;28.99;100.00;100071.08;106879;1283;60439;-86
2023/06/26 10:08:53;;;;;;;14.80;8.60;;;;;;;29.25;100.00;100065.19;107108;1282;73773;-86
2023/06/26 10:11:21;;;;;;;13.70;8.50;;;;;;;29.37;100.00;100063.58;107132;1287;74113;-86
2023/06/26 10:13:51;;;;;;;11.70;7.90;;;;;;;29.23;100.00;100065.67;107073;1282;72447;-85
2023/06/26 10:16:23;;;;;;;16.30;8.00;;;;;;;29.03;100.00;100069.91;107077;1282;62544;-85
2023/06/26 10:18:53;;;;;;;13.10;8.60;;;;;;;28.82;100.00;100073.70;107153;1282;61543;-85
2023/06/26 10:21:22;;;;;;;15.80;8.60;;;;;;;28.46;100.00;100065.76;106904;1283;73354;-85
2023/06/26 10:23:49;;;;;;;12.80;8.30;;;;;;;28.20;100.00;100061.97;107114;1282;74174;-86
2023/06/26 10:26:16;;;;;;;11.30;7.60;;;;;;;28.06;100.00;100058.85;107109;1282;73440;-85
2023/06/26 10:28:43;;;;;;;13.50;8.30;;;;;;;28.05;100.00;100052.13;106685;1283;61840;-85
2023/06/26 10:31:11;;;;;;;13.40;8.50;;;;;;;27.94;100.00;100049.88;106586;1283;60334;-86
2023/06/26 10:33:37;;;;;;;15.20;8.70;;;;;;;27.78;100.00;100045.38;107106;1283;72666;-86
2023/06/26 10:36:18;;;;;;;18.80;8.80;;;;;;;27.54;100.00;100039.89;107104;1283;57983;-85
2023/06/26 10:39:05;;;;;;;13.90;8.70;;;;;;;27.46;100.00;100036.20;107083;1282;73271;-86
2023/06/26 10:41:42;;;;;;;13.10;8.00;;;;;;;27.42;100.00;100029.95;107140;1282;61673;-86
2023/06/26 10:44:09;;;;;;;11.70;7.70;;;;;;;27.37;100.00;100025.42;107132;1282;60204;-87
2023/06/26 10:46:55;;;;;;;13.10;7.60;;;;;;;27.34;100.00;100025.63;107139;1282;72753;-85
2023/06/26 10:49:25;;;;;;;13.10;7.80;;;;;;;27.29;100.00;100033.13;107115;1283;73470;-86
2023/06/26 10:51:51;;;;;;;12.10;7.80;;;;;;;27.33;100.00;100029.98;107130;1283;72853;-86
2023/06/26 10:54:18;;;;;;;14.10;8.00;;;;;;;27.38;100.00;100031.10;107163;1282;58071;-85
2023/06/26 10:56:49;;;;;;;14.50;7.40;;;;;;;27.36;100.00;100036.95;107132;1282;61087;-86
2023/06/26 10:59:18;;;;;;;11.10;7.10;;;;;;;27.30;100.00;100031.63;107141;1282;72351;-86
2023/06/26 11:01:46;;;;;;;11.50;7.20;;;;;;;27.27;100.00;100034.86;107125;1283;74025;-85
2023/06/26 11:04:16;;;;;;;11.00;7.20;;;;;;;27.25;100.00;100030.48;107120;1282;72526;-86
2023/06/26 11:06:45;;;;;;;14.50;7.70;;;;;;;27.22;100.00;100027.95;106899;1282;62876;-86
2023/06/26 11:09:14;;;;;;;13.20;7.80;;;;;;;27.15;100.00;100033.61;107141;1283;61586;-85
2023/06/26 11:11:52;;;;;;;11.60;7.20;;;;;;;27.08;100.00;100043.41;107118;1283;73822;-85
2023/06/26 11:14:22;;;;;;;13.10;7.00;;;;;;;26.97;100.00;100045.63;106967;1283;74256;-90
2023/06/26 11:16:49;;;;;;;10.20;6.30;;;;;;;26.93;100.00;100048.28;106657;1286;73332;-85
2023/06/26 11:19:18;;;;;;;10.90;6.70;;;;;;;26.99;100.00;100046.50;106455;1286;63014;-85
2023/06/26 11:21:44;;;;;;;9.30;6.00;;;;;;;27.02;100.00;100046.45;106375;1289;61214;-85
2023/06/26 11:24:12;;;;;;;9.40;6.50;;;;;;;27.10;100.00;100044.05;106205;1292;58253;-85
2023/06/26 11:26:39;;;;;;;8.70;5.70;;;;;;;27.16;100.00;100045.86;106375;1289;74318;-86
2023/06/26 11:29:04;;;;;;;7.90;5.60;;;;;;;27.16;100.00;100046.65;106344;1288;73556;-85
2023/06/26 11:31:32;;;;;;;9.40;6.80;;;;;;;27.17;100.00;100043.48;106392;1289;58352;-86
2023/06/26 11:34:00;;;;;;;9.80;5.80;;;;;;;27.20;100.00;100040.82;106382;1289;61288;-86
2023/06/26 11:36:27;;;;;;;16.20;6.00;;;;;;;27.22;100.00;100035.79;106436;1289;73691;-86
2023/06/26 11:39:12;;;;;;;8.00;5.30;;;;;;;27.32;100.00;100035.98;106396;1289;74253;-85
2023/06/26 11:41:40;;;;;;;8.50;5.60;;;;;;;27.41;100.00;100038.41;106384;1288;72890;-86
2023/06/26 11:44:08;;;;;;;9.30;5.80;;;;;;;27.48;100.00;100038.60;106259;1288;62723;-85
2023/06/26 11:46:37;;;;;;;8.10;4.90;;;;;;;27.57;100.00;100033.57;106390;1289;60082;-86
2023/06/26 11:49:06;;;;;;;8.70;5.60;;;;;;;27.73;100.00;100033.40;106492;1288;74297;-86
2023/06/26 11:51:33;;;;;;;9.30;5.30;;;;;;;27.87;100.00;100031.10;106696;1286;73406;-86
2023/06/26 11:54:02;;;;;;;8.60;5.50;;;;;;;28.11;100.00;100025.46;107070;1283;72501;-86
2023/06/26 11:56:28;;;;;;;9.40;4.90;;;;;;;28.32;100.00;100022.79;107106;1283;62145;-87
2023/06/26 11:59:02;;;;;;;9.00;5.30;;;;;;;28.39;100.00;100021.52;107163;1282;58069;-86
2023/06/26 12:01:39;;;;;;;8.60;5.30;;;;;;;28.33;100.00;100025.10;107107;1287;74466;-86
2023/06/26 12:04:15;;;;;;;8.40;5.30;;;;;;;28.28;100.00;100023.42;106512;1283;74429;-86
2023/06/26 12:06:46;;;;;;;10.30;5.60;;;;;;;28.23;100.00;100031.02;107119;1283;73419;-87
2023/06/26 12:09:17;;;;;;;9.20;5.50;;;;;;;28.21;100.00;100032.52;107101;1283;61856;-85
2023/06/26 12:11:44;;;;;;;9.00;5.70;;;;;;;28.11;100.00;100033.05;107115;1282;60449;-85
2023/06/26 12:14:11;;;;;;;12.20;5.70;;;;;;;28.07;100.00;100029.96;107130;1282;72844;-85
2023/06/26 12:16:40;;;;;;;8.70;5.50;;;;;;;28.02;100.00;100027.27;107182;1283;59361;-86
2023/06/26 12:19:07;;;;;;;9.40;5.60;;;;;;;27.97;100.00;100024.56;107123;1282;73446;-85
2023/06/26 12:21:41;;;;;;;10.50;5.50;;;;;;;27.92;100.00;100029.45;107124;1283;62633;-86
2023/06/26 12:24:09;;;;;;;11.50;5.80;;;;;;;27.89;100.00;100022.02;107099;1284;60290;-86
2023/06/26 12:26:38;;;;;;;11.40;6.00;;;;;;;27.97;100.00;100015.14;107129;1282;72807;-85
2023/06/26 12:29:08;;;;;;;10.50;6.00;;;;;;;28.12;100.00;100018.95;107121;1282;74729;-85
2023/06/26 12:31:35;;;;;;;14.40;6.20;;;;;;;28.26;100.00;100024.22;107098;1283;73515;-86
2023/06/26 12:34:01;;;;;;;8.10;5.50;;;;;;;28.26;100.00;100023.50;106717;1283;62695;-85
2023/06/26 12:36:29;;;;;;;9.40;6.20;;;;;;;28.23;100.00;100023.64;107124;1283;58148;-86
2023/06/26 12:38:55;;;;;;;11.10;6.00;;;;;;;28.17;100.00;100026.73;106810;1283;72857;-86
2023/06/26 12:41:24;;;;;;;9.30;6.10;;;;;;;28.10;100.00;100028.23;107147;1284;58068;-87
2023/06/26 12:43:55;;;;;;;11.00;6.00;;;;;;;28.13;100.00;100026.73;107089;1283;72977;-86
2023/06/26 12:46:34;;;;;;;10.50;5.80;;;;;;;28.22;100.00;100024.86;107060;1282;61892;-88
2023/06/26 12:49:00;;;;;;;9.50;5.80;;;;;;;28.21;100.00;100026.11;106920;1283;60203;-86
2023/06/26 12:51:27;;;;;;;13.70;6.10;;;;;;;28.15;100.00;100027.52;107123;1287;58181;-86
2023/06/26 12:53:53;;;;;;;8.80;5.50;;;;;;;28.09;100.00;100029.65;107139;1283;58255;-86
2023/06/26 12:56:19;;;;;;;12.70;5.90;;;;;;;28.06;100.00;100035.73;107109;1282;58442;-85
2023/06/26 12:58:45;;;;;;;9.70;5.80;;;;;;;28.00;100.00;100037.23;107086;1283;58207;-86
2023/06/26 13:01:13;;;;;;;11.90;6.20;;;;;;;27.87;100.00;100043.77;107130;1283;58143;-85
2023/06/26 13:03:39;;;;;;;12.90;5.90;;;;;;;27.85;100.00;100045.34;107129;1282;58373;-83
2023/06/26 13:06:04;;;;;;;12.50;5.60;;;;;;;27.76;100.00;100045.44;107136;1282;58225;-87
2023/06/26 13:08:30;;;;;;;9.80;5.70;;;;;;;27.56;100.00;100048.04;107131;1282;58555;-89
2023/06/26 13:10:55;;;;;;;8.30;5.40;;;;;;;27.45;100.00;100044.52;107131;1282;58282;-87
2023/06/26 13:13:21;;;;;;;12.90;6.50;;;;;;;27.34;100.00;100041.14;107213;1282;58454;-87
2023/06/26 13:15:47;;;;;;;12.40;6.40;;;;;;;27.27;100.00;100044.41;107099;1282;74197;-86
2023/06/26 13:18:13;;;;;;;9.00;6.10;;;;;;;27.20;100.00;100055.60;106914;1284;58345;-87
2023/06/26 13:20:38;;;;;;;10.80;5.90;;;;;;;27.13;100.00;100055.31;107122;1282;58452;-84
2023/06/26 13:23:04;;;;;;;13.40;6.50;;;;;;;27.04;100.00;100055.63;106907;1283;58255;-86
2023/06/26 13:25:29;;;;;;;8.10;5.80;;;;;;;27.00;100.00;100059.31;107201;1283;58263;-86
2023/06/26 13:27:55;;;;;;;10.70;5.90;;;;;;;27.00;100.00;100062.80;106741;1283;72356;-85
2023/06/26 13:30:21;;;;;;;9.90;6.20;;;;;;;27.02;100.00;100064.16;106816;1283;58445;-83
2023/06/26 13:32:47;;;;;;;11.60;6.00;;;;;;;26.89;100.00;100060.59;107124;1282;58259;-85
2023/06/26 13:35:13;;;;;;;11.60;6.30;;;;;;;26.74;100.00;100055.10;107123;1282;58660;-85
2023/06/26 13:37:40;;;;;;;9.60;6.00;;;;;;;26.61;100.00;100054.04;107168;1282;58255;-85
2023/06/26 13:40:07;;;;;;;10.70;6.60;;;;;;;26.40;100.00;100051.21;106543;1283;58323;-85
2023/06/26 13:42:33;;;;;;;9.10;6.30;;;;;;;26.28;100.00;100048.02;107158;1283;59146;-85
2023/06/26 13:44:58;;;;;;;9.30;6.10;;;;;;;26.19;100.00;100049.59;107051;1282;58475;-85
2023/06/26 13:47:24;;;;;;;11.60;6.40;;;;;;;26.15;100.00;100045.38;106663;1286;58481;-83
2023/06/26 13:49:49;;;;;;;11.50;6.80;;;;;;;26.03;100.00;100040.83;106513;1289;58514;-82
2023/06/26 13:52:15;;;;;;;11.60;6.60;;;;;;;25.97;100.00;100040.98;107026;1283;58271;-84
2023/06/26 13:54:41;;;;;;;10.90;6.90;;;;;;;25.93;100.00;100039.05;107068;1283;58218;-85
2023/06/26 13:57:07;;;;;;;10.50;7.00;;;;;;;25.91;100.00;100040.30;107051;1283;58210;-86
2023/06/26 13:59:34;;;;;;;16.80;7.10;;;;;;;25.86;100.00;100037.39;106578;1283;58506;-86
2023/06/26 14:01:59;;;;;;;12.70;6.80;;;;;;;25.81;100.00;100037.81;107061;1283;58239;-85
2023/06/26 14:04:26;;;;;;;10.30;6.80;;;;;;;25.77;100.00;100030.17;107053;1283;58539;-85
2023/06/26 14:06:54;;;;;;;12.20;7.00;;;;;;;25.78;100.00;100024.27;106694;1285;58710;-85
2023/06/26 14:09:19;;;;;;;9.60;6.10;;;;;;;25.78;100.00;100021.66;106940;1286;58388;-85
2023/06/26 14:11:45;;;;;;;9.80;7.00;;;;;;;25.80;100.00;100021.14;106994;1285;58608;-86
2023/06/26 14:14:11;;;;;;;13.90;7.30;;;;;;;25.88;100.00;100021.09;106939;1285;58665;-86
2023/06/26 14:16:36;;;;;;;9.70;6.70;;;;;;;25.96;100.00;100018.96;107001;1285;58181;-85
2023/06/26 14:19:02;;;;;;;11.30;7.10;;;;;;;26.07;100.00;100016.16;106645;1285;59716;-86
2023/06/26 14:21:28;;;;;;;14.00;7.50;;;;;;;26.21;100.00;100009.98;106860;1284;58356;-86
2023/06/26 14:23:56;;;;;;;12.40;7.30;;;;;;;26.38;100.00;100010.14;106377;1289;59017;-85
2023/06/26 14:26:21;;;;;;;10.80;7.00;;;;;;;26.50;100.00;100010.66;106414;1288;61900;-85
2023/06/26 14:28:47;;;;;;;11.20;7.00;;;;;;;26.62;100.00;100010.20;106244;1289;58307;-86
2023/06/26 14:31:13;;;;;;;12.90;6.50;;;;;;;26.74;100.00;100007.86;106489;1288;58238;-87
2023/06/26 14:33:39;;;;;;;10.60;7.00;;;;;;;27.00;100.00;100001.39;106491;1288;58431;-86
2023/06/26 14:36:04;;;;;;;10.10;6.30;;;;;;;27.15;100.00;100003.47;106467;1288;58442;-87
2023/06/26 14:38:30;;;;;;;11.50;7.10;;;;;;;27.24;100.00;100000.60;106485;1288;58453;-87
2023/06/26 14:40:56;;;;;;;11.70;7.60;;;;;;;27.36;100.00;100000.66;106487;1288;58809;-90
2023/06/26 14:43:21;;;;;;;14.30;6.90;;;;;;;27.48;100.00;99997.15;106252;1288;58538;-87
2023/06/26 14:45:47;;;;;;;11.00;6.50;;;;;;;27.66;100.00;99994.54;106230;1289;58725;-87
2023/06/26 14:48:13;;;;;;;10.60;7.10;;;;;;;27.86;100.00;99993.98;106464;1288;58749;-87
2023/06/26 14:50:38;;;;;;;11.40;6.70;;;;;;;28.00;100.00;99997.81;106464;1288;58691;-87
2023/06/26 14:53:04;;;;;;;12.90;6.70;;;;;;;28.09;100.00;99995.22;106245;1289;58546;-87
2023/06/26 14:55:29;;;;;;;13.50;7.40;;;;;;;28.21;100.00;99992.46;106736;1285;70570;-88
2023/06/26 14:57:55;;;;;;;11.40;7.30;;;;;;;28.29;100.00;99988.59;106927;1284;58669;-88
2023/06/26 15:00:29;;;;;;;14.90;8.40;;;;;;;28.27;100.00;99985.98;106753;1286;58593;-91
2023/06/26 15:02:55;;;;;;;12.20;8.00;;;;;;;28.22;100.00;99980.27;106721;1287;74467;-89
2023/06/26 15:05:21;;;;;;;15.10;8.80;;;;;;;28.23;100.00;99982.48;107012;1286;58596;-89
2023/06/26 15:07:47;;;;;;;15.90;9.20;;;;;;;28.23;100.00;99984.70;107010;1285;58487;-88
2023/06/26 15:10:13;;;;;;;17.40;9.10;;;;;;;28.19;100.00;99985.26;106817;1284;58185;-89
2023/06/26 15:12:41;;;;;;;17.50;10.10;;;;;;;28.02;100.00;99986.19;106954;1285;58260;-90
2023/06/26 15:15:07;;;;;;;17.90;11.10;;;;;;;27.96;100.00;99988.15;106530;1285;58718;-89
2023/06/26 15:17:35;;;;;;;15.60;9.90;;;;;;;27.92;100.00;99984.42;106567;1284;58620;-88
2023/06/26 15:20:01;;;;;;;15.60;9.30;;;;;;;27.92;100.00;99983.08;106923;1285;72491;-91
2023/06/26 15:22:29;;;;;;;15.20;9.70;;;;;;;27.96;100.00;99981.51;106731;1285;58302;-86
2023/06/26 15:24:55;;;;;;;14.30;9.00;;;;;;;27.90;100.00;99981.16;106580;1285;59040;-88
2023/06/26 15:27:20;;;;;;;14.60;9.60;;;;;;;27.90;100.00;99984.03;106991;1284;58446;-87
2023/06/26 15:29:46;;;;;;;16.50;10.10;;;;;;;27.93;100.00;99985.61;106843;1285;58282;-87
2023/06/26 15:32:11;;;;;;;17.10;10.00;;;;;;;27.98;100.00;99989.48;106975;1284;58305;-86
2023/06/26 15:34:37;;;;;;;16.10;9.30;;;;;;;27.96;100.00;99992.34;107035;1284;58315;-86
2023/06/26 15:37:05;;;;;;;17.20;9.80;;;;;;;27.97;100.00;99990.84;106958;1285;74598;-87
2023/06/26 15:39:30;;;;;;;14.40;9.20;;;;;;;27.93;100.00;99994.31;106633;1286;74265;-87
2023/06/26 15:41:56;;;;;;;14.30;9.00;;;;;;;27.88;100.00;99988.77;106321;1286;58345;-86
2023/06/26 15:44:21;;;;;;;18.90;8.90;;;;;;;27.91;100.00;99986.48;106733;1286;58357;-89
2023/06/26 15:46:47;;;;;;;15.60;9.10;;;;;;;27.86;100.00;99983.46;106763;1285;58288;-87
2023/06/26 15:49:12;;;;;;;17.40;9.30;;;;;;;27.84;100.00;99985.27;107033;1285;58255;-87
2023/06/26 15:51:38;;;;;;;18.00;9.70;;;;;;;27.79;100.00;99983.45;106525;1286;58491;-88
2023/06/26 15:54:04;;;;;;;17.20;9.30;;;;;;;27.82;100.00;99984.40;106936;1285;58189;-88
2023/06/26 15:56:30;;;;;;;17.10;9.30;;;;;;;27.86;100.00;99986.55;106980;1284;58990;-88
2023/06/26 15:58:55;;;;;;;17.40;9.60;;;;;;;27.70;100.00;99982.44;107009;1285;58553;-89
2023/06/26 16:01:21;;;;;;;18.40;9.90;;;;;;;27.59;100.00;99975.92;106591;1286;58353;-89
2023/06/26 16:03:47;;;;;;;19.50;11.00;;;;;;;27.46;100.00;99976.67;106986;1285;58264;-88
2023/06/26 16:06:12;;;;;;;21.00;11.30;;;;;;;27.35;100.00;99978.29;106973;1284;60035;-88